Aviation Digital Data Service (ADDS)

Output produced by METARs form (0243 UTC 24 July 2017)
found at http://www.aviationweather.gov/adds/metars/
 
TAF MTCH 231700Z 2318/2418 02010KT 9999 FEW026 SCT050 
     PROB30 
     TEMPO 2400/2406 4500 -SHRA SCT020 OVC050 
     FM241000 14005KT 7000 FEW020 BKN080 
     BECMG 2413/2417 05010KT 9999 FEW024 SCT050
       
TAF MTPP 232200Z 2400/2500 31008KT 9999 SCT025CB 
     PROB40 
     TEMPO 2400/2405 4000 TSRA SCT020CB BKN040 
     BECMG 2406/2408 07006KT 7000 NSW FEW015 SCT50 
     FM241300 10012KT 9999 FEW026 
     BECMG 2418/2422 28008KT FEW024CB SCT040